Time;durP1;ratioP1;P1;durP2;ratioP2;P2;SDS_P1;SDS_P2;PMS_P1;PMS_P2;Temp;Humidity;BMP_temperature;BMP_pressure;BME280_temperature;BME280_humidity;BME280_pressure;Samples;Min_cycle;Max_cycle;Signal;HPM_P1;HPM_P2
2021/06/01 00:01:44;;;;;;;6.82;1.40;;;;;;;25.15;19.56;98457.91;5095007;28;20032;-86
2021/06/01 00:04:11;;;;;;;1.70;1.10;;;;;;;25.10;19.17;98458.38;5095292;28;20035;-86
2021/06/01 00:06:38;;;;;;;1.30;1.13;;;;;;;25.14;19.71;98459.09;5095402;28;20036;-86
2021/06/01 00:09:07;;;;;;;2.97;1.27;;;;;;;25.19;19.62;98460.63;5095136;28;20030;-85
2021/06/01 00:11:33;;;;;;;2.75;1.40;;;;;;;24.98;19.89;98453.41;5094369;28;20036;-86
2021/06/01 00:13:59;;;;;;;2.17;1.17;;;;;;;24.79;20.01;98450.56;5095250;28;20100;-87
2021/06/01 00:16:25;;;;;;;1.60;1.25;;;;;;;25.09;19.34;98453.97;5094786;28;20028;-86
2021/06/01 00:18:52;;;;;;;3.00;1.60;;;;;;;25.00;20.04;98450.97;5094708;28;20496;-86
2021/06/01 00:21:18;;;;;;;2.47;1.35;;;;;;;24.81;20.05;98450.97;5082072;28;20036;-86
2021/06/01 00:23:45;;;;;;;1.45;1.08;;;;;;;24.91;19.85;98459.16;5074933;28;20039;-86
2021/06/01 00:26:11;;;;;;;2.78;1.05;;;;;;;25.01;19.50;98451.75;5074833;28;20033;-86
2021/06/01 00:28:39;;;;;;;1.95;1.15;;;;;;;25.11;19.00;98447.94;5074499;28;20033;-85
2021/06/01 00:31:09;;;;;;;1.42;0.95;;;;;;;25.22;19.45;98460.56;5081845;28;20134;-86
2021/06/01 00:33:35;;;;;;;1.92;1.08;;;;;;;25.07;19.09;98452.81;5094716;28;20036;-85
2021/06/01 00:36:02;;;;;;;1.77;0.95;;;;;;;25.21;19.32;98461.78;5094817;28;20040;-85
2021/06/01 00:38:28;;;;;;;0.98;0.93;;;;;;;25.19;19.04;98452.97;5094864;28;20036;-85
2021/06/01 00:40:56;;;;;;;2.25;1.20;;;;;;;24.94;19.72;98449.88;5093353;28;20039;-86
2021/06/01 00:43:22;;;;;;;2.80;1.02;;;;;;;24.69;19.32;98450.31;5094521;28;20028;-86
2021/06/01 00:45:48;;;;;;;2.88;1.45;;;;;;;24.82;19.53;98456.13;5094214;28;20043;-86
2021/06/01 00:48:14;;;;;;;1.98;1.60;;;;;;;24.78;19.80;98461.03;5094302;28;20365;-86
2021/06/01 00:50:40;;;;;;;1.15;1.05;;;;;;;24.68;19.28;98453.56;5094353;28;20118;-86
2021/06/01 00:53:07;;;;;;;1.90;1.25;;;;;;;24.91;18.96;98463.97;5094349;28;20028;-86
2021/06/01 00:55:34;;;;;;;3.17;1.35;;;;;;;25.19;18.88;98467.03;5094570;28;20028;-86
2021/06/01 00:58:01;;;;;;;2.22;1.02;;;;;;;25.27;18.58;98460.06;5094271;28;20035;-86
2021/06/01 01:03:12;;;;;;;1.65;1.52;;;;;;;25.05;18.86;98458.09;5094985;28;20043;-86
2021/06/01 01:05:40;;;;;;;1.95;1.27;;;;;;;24.90;18.81;98456.78;5094384;28;20044;-86
2021/06/01 01:11:02;;;;;;;2.42;1.27;;;;;;;25.13;18.96;98460.34;5094736;28;20093;-86
2021/06/01 01:13:44;;;;;;;1.88;1.25;;;;;;;25.16;18.44;98453.84;5094322;28;20032;-86
2021/06/01 01:16:11;;;;;;;3.28;1.33;;;;;;;24.95;18.65;98461.91;5094281;28;20039;-86
2021/06/01 01:18:41;;;;;;;3.30;1.33;;;;;;;24.94;18.54;98451.91;5092848;28;20581;-86
2021/06/01 01:21:31;;;;;;;2.22;1.10;;;;;;;24.82;18.84;98452.53;5073569;28;20460;-85
2021/06/01 01:24:32;;;;;;;3.08;1.38;;;;;;;24.39;19.90;98458.06;5073346;28;20484;-86
2021/06/01 01:27:20;;;;;;;1.70;1.00;;;;;;;24.50;19.71;98450.28;5073579;28;20078;-86
2021/06/01 01:29:49;;;;;;;2.78;1.13;;;;;;;24.79;19.46;98450.56;5073477;28;20029;-86
2021/06/01 01:32:45;;;;;;;1.92;1.00;;;;;;;24.97;19.16;98453.84;5090577;28;20039;-86
2021/06/01 01:35:14;;;;;;;2.20;1.33;;;;;;;24.93;19.18;98458.72;5093603;28;20062;-86
2021/06/01 01:37:42;;;;;;;2.45;1.63;;;;;;;24.78;19.22;98449.78;5093586;28;20024;-86
2021/06/01 01:40:09;;;;;;;3.78;1.67;;;;;;;24.69;19.18;98453.13;5093888;28;20063;-86
2021/06/01 01:42:42;;;;;;;1.52;1.00;;;;;;;24.71;18.89;98456.28;5093400;28;20031;-86
2021/06/01 01:45:17;;;;;;;2.15;0.90;;;;;;;25.06;18.72;98451.25;5093794;28;20055;-85
2021/06/01 01:50:20;;;;;;;2.25;1.15;;;;;;;24.82;18.91;98444.91;5093714;28;20036;-85
2021/06/01 01:52:48;;;;;;;1.75;1.08;;;;;;;24.89;19.28;98443.97;5093740;28;20039;-86
2021/06/01 01:55:15;;;;;;;2.55;1.10;;;;;;;24.95;19.35;98445.06;5093369;28;20039;-86
2021/06/01 01:57:45;;;;;;;2.05;1.10;;;;;;;24.88;19.19;98445.19;5093385;28;20032;-85
2021/06/01 02:00:16;;;;;;;2.90;1.35;;;;;;;24.62;19.44;98442.00;5093113;28;20380;-85
2021/06/01 02:02:47;;;;;;;2.58;1.52;;;;;;;24.48;19.34;98444.31;5093244;28;20150;-85
2021/06/01 02:05:14;;;;;;;3.30;1.27;;;;;;;24.53;19.24;98438.19;5092021;28;20028;-85
2021/06/01 02:07:40;;;;;;;3.33;1.35;;;;;;;24.74;19.34;98444.19;5093266;28;20028;-85
2021/06/01 02:10:11;;;;;;;2.63;1.25;;;;;;;24.87;18.40;98447.22;5093222;28;20032;-85
2021/06/01 02:12:37;;;;;;;3.33;1.00;;;;;;;25.06;18.32;98449.25;5093216;28;20035;-85
2021/06/01 02:15:06;;;;;;;2.05;1.20;;;;;;;25.27;18.03;98453.63;5092999;28;20028;-85
2021/06/01 02:17:32;;;;;;;1.85;1.17;;;;;;;25.04;18.85;98443.25;5072704;28;20044;-85
2021/06/01 02:19:58;;;;;;;2.15;1.52;;;;;;;24.62;19.01;98449.66;5083642;28;20565;-85
2021/06/01 02:23:47;;;;;;;1.95;1.25;;;;;;;24.70;19.27;98453.91;5093034;28;20039;-85
2021/06/01 02:25:41;;;;;;;3.13;1.20;;;;;;;25.02;18.79;98454.13;5093063;28;20127;-85
2021/06/01 02:28:19;;;;;;;1.63;0.80;;;;;;;25.18;18.12;98450.63;5092841;28;20031;-85
2021/06/01 02:30:58;;;;;;;2.13;1.17;;;;;;;25.29;17.80;98448.38;5093148;28;20074;-85
2021/06/01 02:33:29;;;;;;;3.33;1.45;;;;;;;25.32;17.85;98451.09;5093152;28;20066;-85
2021/06/01 02:35:55;;;;;;;1.42;1.00;;;;;;;25.13;17.95;98457.53;5095102;28;20036;-85
2021/06/01 02:38:22;;;;;;;1.40;0.90;;;;;;;25.00;18.06;98453.75;5097254;28;20062;-85
2021/06/01 02:40:52;;;;;;;1.05;0.88;;;;;;;25.09;18.12;98453.19;5096899;28;20387;-85
2021/06/01 02:43:18;;;;;;;1.42;1.15;;;;;;;24.84;18.02;98450.06;5096884;28;20134;-85
2021/06/01 02:45:45;;;;;;;2.25;1.00;;;;;;;24.66;18.62;98445.56;5095498;28;20449;-85
2021/06/01 02:48:13;;;;;;;2.10;1.10;;;;;;;24.81;18.24;98439.72;5096754;28;20119;-85
2021/06/01 02:50:42;;;;;;;0.75;0.70;;;;;;;24.96;18.29;98441.81;5096471;28;20040;-85
2021/06/01 02:53:11;;;;;;;3.03;1.48;;;;;;;24.69;18.43;98446.72;5096952;28;20111;-85
2021/06/01 02:55:37;;;;;;;1.65;0.90;;;;;;;24.38;18.50;98448.88;5096558;28;20032;-85
2021/06/01 02:58:07;;;;;;;2.15;1.00;;;;;;;24.59;18.35;98442.91;5096751;28;20111;-85
2021/06/01 03:00:36;;;;;;;3.33;1.35;;;;;;;24.60;18.71;98441.66;5096447;28;20031;-85
2021/06/01 03:03:08;;;;;;;1.67;0.90;;;;;;;24.52;18.58;98445.84;5094981;28;20422;-85
2021/06/01 03:05:35;;;;;;;2.80;1.05;;;;;;;24.28;19.24;98447.03;5096483;28;20111;-85
2021/06/01 03:08:26;;;;;;;1.42;1.00;;;;;;;23.96;19.52;98450.34;5096319;28;20107;-85
2021/06/01 03:11:03;;;;;;;1.67;1.05;;;;;;;24.34;19.29;98447.38;5096265;28;20031;-85
2021/06/01 03:13:30;;;;;;;1.83;1.27;;;;;;;24.69;18.80;98447.50;5096358;28;20032;-85
2021/06/01 03:15:56;;;;;;;1.00;0.80;;;;;;;25.04;18.64;98446.06;5095453;28;20077;-85
2021/06/01 03:18:23;;;;;;;1.58;1.00;;;;;;;25.35;18.11;98457.88;5075728;28;20037;-85
2021/06/01 03:20:50;;;;;;;3.30;0.90;;;;;;;25.57;18.03;98455.44;5075798;28;20045;-85
2021/06/01 03:23:17;;;;;;;1.65;0.90;;;;;;;25.67;17.78;98460.03;5077921;28;20099;-85
2021/06/01 03:25:43;;;;;;;1.80;0.80;;;;;;;25.80;17.89;98458.13;5095722;28;20036;-85
2021/06/01 03:28:10;;;;;;;1.33;0.80;;;;;;;25.99;17.59;98454.47;5096017;28;20031;-85
2021/06/01 03:30:37;;;;;;;1.73;1.10;;;;;;;25.88;18.44;98454.69;5095992;28;20028;-85
2021/06/01 03:33:03;;;;;;;2.88;1.05;;;;;;;25.94;18.55;98449.34;5095781;28;20479;-85
2021/06/01 03:35:29;;;;;;;4.22;1.00;;;;;;;26.53;18.55;98449.91;5095802;28;20032;-85
2021/06/01 03:37:56;;;;;;;1.10;0.93;;;;;;;26.93;18.85;98447.66;5096080;28;20047;-85
2021/06/01 03:40:24;;;;;;;2.60;0.98;;;;;;;27.01;17.78;98445.41;5094103;28;20043;-85
2021/06/01 03:42:51;;;;;;;2.95;1.15;;;;;;;26.93;18.22;98449.69;5094516;28;20115;-85
2021/06/01 03:45:18;;;;;;;1.80;1.05;;;;;;;27.02;18.87;98447.81;5095701;28;20024;-85
2021/06/01 03:47:45;;;;;;;2.45;1.17;;;;;;;27.01;18.74;98446.22;5092906;28;20036;-85
2021/06/01 03:50:11;;;;;;;1.10;0.90;;;;;;;26.86;18.98;98444.25;5095611;28;20085;-85
2021/06/01 03:52:38;;;;;;;3.20;1.55;;;;;;;26.84;19.17;98443.91;5095582;28;20066;-86
2021/06/01 03:55:05;;;;;;;1.63;1.23;;;;;;;26.93;18.93;98446.88;5093975;28;20446;-85
2021/06/01 03:57:31;;;;;;;4.32;1.67;;;;;;;27.03;19.01;98445.75;5095189;28;20032;-85
2021/06/01 03:59:58;;;;;;;2.72;1.30;;;;;;;27.26;19.35;98440.66;5095683;28;20392;-86
2021/06/01 04:02:24;;;;;;;3.72;1.35;;;;;;;27.50;18.99;98438.38;5095443;28;20059;-86
2021/06/01 04:04:50;;;;;;;4.63;1.75;;;;;;;27.80;19.18;98445.50;5095365;28;20081;-86
2021/06/01 04:07:17;;;;;;;1.33;1.10;;;;;;;28.04;18.82;98444.75;5095536;28;20081;-86
2021/06/01 04:09:43;;;;;;;3.83;1.98;;;;;;;28.04;19.30;98450.41;5095026;28;20031;-86
2021/06/01 04:12:11;;;;;;;4.78;1.63;;;;;;;28.24;19.22;98441.66;5093847;28;20032;-86
2021/06/01 04:14:38;;;;;;;1.50;1.40;;;;;;;28.53;19.24;98442.31;5093895;28;20024;-86
2021/06/01 04:17:04;;;;;;;3.17;1.77;;;;;;;28.64;18.82;98439.13;5075142;28;20072;-86
2021/06/01 04:19:32;;;;;;;2.42;1.80;;;;;;;28.52;19.72;98445.59;5074651;28;20036;-86
2021/06/01 04:21:59;;;;;;;2.22;1.77;;;;;;;28.41;19.43;98447.97;5074922;28;20082;-86
2021/06/01 04:24:27;;;;;;;3.22;1.85;;;;;;;28.49;19.26;98444.47;5074439;28;20044;-86
2021/06/01 04:26:55;;;;;;;3.47;2.00;;;;;;;28.61;19.56;98442.91;5074867;28;20086;-86
2021/06/01 04:29:21;;;;;;;5.90;2.05;;;;;;;28.81;19.23;98448.25;5074906;28;20058;-87
2021/06/01 04:31:47;;;;;;;2.72;1.55;;;;;;;29.09;19.01;98448.03;5081283;28;20387;-87
2021/06/01 04:34:13;;;;;;;2.35;1.58;;;;;;;29.28;19.27;98444.09;5094555;28;20099;-87
2021/06/01 04:36:39;;;;;;;4.13;1.48;;;;;;;29.50;19.78;98441.25;5094694;28;20110;-87
2021/06/01 04:39:05;;;;;;;1.60;1.33;;;;;;;29.86;19.06;98446.34;5094671;28;20051;-87
2021/06/01 04:41:32;;;;;;;1.95;1.30;;;;;;;30.14;18.68;98445.22;5094960;28;20028;-87
2021/06/01 04:43:58;;;;;;;2.25;1.45;;;;;;;30.17;18.55;98447.13;5094636;28;20024;-87
2021/06/01 04:46:24;;;;;;;2.22;1.33;;;;;;;30.08;18.53;98447.84;5094496;28;20126;-87
2021/06/01 04:48:51;;;;;;;1.70;1.35;;;;;;;30.16;19.44;98445.53;5094286;28;20028;-87
2021/06/01 04:51:18;;;;;;;1.52;1.05;;;;;;;30.41;18.94;98444.53;5094448;28;20036;-87
2021/06/01 04:53:52;;;;;;;1.25;1.15;;;;;;;30.81;18.36;98442.38;5094369;28;20020;-87
2021/06/01 04:56:19;;;;;;;1.80;1.00;;;;;;;30.93;18.26;98449.97;5094310;28;20036;-87
2021/06/01 04:58:45;;;;;;;2.20;1.15;;;;;;;31.26;17.95;98453.75;5093809;28;20032;-87
2021/06/01 05:01:11;;;;;;;2.03;1.50;;;;;;;31.56;18.26;98448.34;5094268;28;20028;-87
2021/06/01 05:03:38;;;;;;;1.45;1.17;;;;;;;31.91;18.82;98450.31;5094089;28;20471;-87
2021/06/01 05:06:05;;;;;;;1.25;1.15;;;;;;;32.42;17.71;98455.94;5093767;28;20476;-87
2021/06/01 05:08:32;;;;;;;1.33;1.13;;;;;;;32.70;17.61;98456.56;5094104;28;20058;-88
2021/06/01 05:10:58;;;;;;;3.22;1.35;;;;;;;32.93;17.91;98449.31;5094049;28;20074;-88
2021/06/01 05:13:24;;;;;;;1.35;1.13;;;;;;;32.75;17.26;98455.91;5087909;28;20047;-88
2021/06/01 05:15:51;;;;;;;2.30;1.20;;;;;;;32.55;16.37;98461.44;5091614;28;20380;-88
2021/06/01 05:18:18;;;;;;;1.30;1.20;;;;;;;32.16;16.83;98459.72;5094042;28;20415;-88
2021/06/01 05:20:46;;;;;;;2.55;1.23;;;;;;;32.15;17.42;98453.25;5093632;28;20107;-88
2021/06/01 05:23:15;;;;;;;1.63;1.10;;;;;;;32.58;18.38;98457.63;5093673;28;20111;-88
2021/06/01 05:25:44;;;;;;;1.42;0.90;;;;;;;33.06;17.95;98450.66;5093907;28;20034;-89
2021/06/01 05:28:11;;;;;;;1.80;0.93;;;;;;;33.52;17.15;98453.06;5094150;28;20396;-88
2021/06/01 05:35:31;;;;;;;2.28;1.17;;;;;;;33.74;15.30;98451.44;5093729;28;20036;-88
2021/06/01 05:38:01;;;;;;;3.72;1.00;;;;;;;33.47;16.84;98454.53;5094026;28;20028;-88
2021/06/01 05:40:27;;;;;;;4.10;1.25;;;;;;;33.56;16.97;98448.78;5093551;28;20031;-89
2021/06/01 05:42:53;;;;;;;2.47;1.25;;;;;;;33.67;16.73;98445.34;5093617;28;20025;-88
2021/06/01 05:45:19;;;;;;;2.17;1.15;;;;;;;33.74;16.33;98451.44;5093784;28;20032;-89
2021/06/01 05:47:45;;;;;;;2.33;1.25;;;;;;;33.86;16.25;98446.72;5093684;28;20059;-89
2021/06/01 05:50:11;;;;;;;2.85;1.30;;;;;;;33.73;16.56;98449.06;5093278;28;20480;-89
2021/06/01 05:52:38;;;;;;;3.05;1.00;;;;;;;33.71;16.78;98460.16;5093584;28;20500;-88
2021/06/01 05:55:05;;;;;;;1.67;1.08;;;;;;;33.73;16.63;98463.31;5093453;28;20434;-89
2021/06/01 05:57:32;;;;;;;1.13;0.98;;;;;;;33.75;15.93;98455.84;5093110;28;20039;-88
2021/06/01 05:59:58;;;;;;;1.65;1.40;;;;;;;33.68;16.07;98459.09;5093658;28;20097;-88
2021/06/01 06:02:24;;;;;;;1.52;0.93;;;;;;;33.44;16.25;98458.38;5093617;28;20028;-88
2021/06/01 06:04:50;;;;;;;1.48;1.05;;;;;;;33.29;16.61;98466.91;5092915;28;20370;-88
2021/06/01 06:07:16;;;;;;;4.18;1.13;;;;;;;33.29;16.73;98458.34;5093251;28;20032;-88
2021/06/01 06:09:43;;;;;;;1.30;0.75;;;;;;;33.47;16.40;98468.78;5093485;28;20480;-88
2021/06/01 06:12:09;;;;;;;2.40;1.30;;;;;;;33.42;15.56;98456.00;5085769;28;20035;-88
2021/06/01 06:14:35;;;;;;;1.23;0.90;;;;;;;33.47;16.13;98463.06;5090516;28;20036;-88
2021/06/01 06:17:10;;;;;;;4.20;0.98;;;;;;;33.60;16.67;98468.53;5097660;28;20476;-88
2021/06/01 06:19:42;;;;;;;1.65;1.17;;;;;;;33.72;16.26;98468.25;5095721;28;20405;-88
2021/06/01 06:22:08;;;;;;;1.55;1.02;;;;;;;33.70;16.39;98473.63;5097179;28;20031;-88
2021/06/01 06:24:34;;;;;;;1.77;1.20;;;;;;;33.69;15.70;98468.44;5097309;28;20020;-88
2021/06/01 06:27:01;;;;;;;3.30;1.20;;;;;;;33.64;15.89;98463.41;5096192;28;20058;-88
2021/06/01 06:29:27;;;;;;;1.92;1.05;;;;;;;33.81;16.20;98461.66;5097464;28;20027;-88
2021/06/01 06:31:53;;;;;;;1.58;1.05;;;;;;;33.95;15.82;98460.84;5097086;28;20036;-88
2021/06/01 06:34:19;;;;;;;1.98;1.05;;;;;;;33.89;15.59;98462.81;5096725;28;20063;-88
2021/06/01 06:36:45;;;;;;;1.33;1.15;;;;;;;33.80;16.31;98460.84;5097277;28;20040;-88
2021/06/01 06:39:11;;;;;;;3.78;1.42;;;;;;;33.48;15.74;98466.72;5096904;28;20043;-88
2021/06/01 06:41:37;;;;;;;5.53;3.88;;;;;;;33.13;16.51;98469.41;5097181;28;20028;-88
2021/06/01 06:44:04;;;;;;;1.70;1.27;;;;;;;32.61;16.66;98477.34;5096970;28;20032;-88
2021/06/01 06:46:37;;;;;;;4.32;2.38;;;;;;;32.78;16.04;98469.19;5096833;28;20124;-88
2021/06/01 06:49:04;;;;;;;2.90;1.67;;;;;;;32.60;16.97;98467.22;5096481;28;20068;-88
2021/06/01 06:51:30;;;;;;;2.55;1.50;;;;;;;32.89;16.40;98469.41;5096741;28;20024;-88
2021/06/01 06:53:57;;;;;;;4.63;1.20;;;;;;;32.95;17.02;98473.16;5097005;28;20499;-88
2021/06/01 06:56:28;;;;;;;2.25;1.15;;;;;;;33.00;17.15;98463.19;5096516;28;20119;-89
2021/06/01 06:58:56;;;;;;;1.65;1.08;;;;;;;33.41;16.10;98459.34;5096708;28;20536;-88
2021/06/01 07:01:22;;;;;;;0.88;0.88;;;;;;;33.76;15.74;98456.63;5096607;28;20070;-88
2021/06/01 07:03:49;;;;;;;1.50;1.00;;;;;;;33.75;15.40;98452.25;5096057;28;20028;-89
2021/06/01 07:06:16;;;;;;;1.20;1.00;;;;;;;33.99;16.34;98461.44;5096414;28;20035;-88
2021/06/01 07:08:42;;;;;;;3.22;0.90;;;;;;;34.41;16.04;98456.16;5096686;28;20081;-89
2021/06/01 07:11:09;;;;;;;0.80;0.80;;;;;;;34.52;15.25;98459.19;5081923;28;20437;-89
2021/06/01 07:13:38;;;;;;;2.25;1.23;;;;;;;34.56;15.24;98454.09;5076046;28;20064;-88
2021/06/01 07:16:04;;;;;;;1.17;0.98;;;;;;;34.57;15.69;98455.66;5075875;28;20034;-89
2021/06/01 07:18:31;;;;;;;2.65;0.85;;;;;;;34.61;14.56;98450.50;5075797;28;20056;-89
2021/06/01 07:21:00;;;;;;;1.10;0.90;;;;;;;34.42;14.08;98448.41;5075512;28;20021;-88
2021/06/01 07:23:27;;;;;;;1.67;1.05;;;;;;;34.49;14.93;98450.84;5096177;28;20033;-88
2021/06/01 07:25:53;;;;;;;1.17;0.90;;;;;;;34.63;14.15;98450.81;5096127;28;20040;-88
2021/06/01 07:28:19;;;;;;;2.63;0.88;;;;;;;33.15;15.54;98453.41;5095991;28;20468;-89
2021/06/01 07:30:45;;;;;;;1.10;1.00;;;;;;;33.38;15.61;98452.56;5095809;28;20103;-89
2021/06/01 07:33:11;;;;;;;1.40;0.90;;;;;;;33.98;15.25;98442.78;5096014;28;20117;-88
2021/06/01 07:35:37;;;;;;;1.00;0.88;;;;;;;34.28;14.47;98446.38;5095951;28;20028;-89
2021/06/01 07:38:03;;;;;;;0.80;0.80;;;;;;;33.08;15.34;98441.63;5095877;28;20428;-89
2021/06/01 07:40:29;;;;;;;1.55;0.90;;;;;;;31.53;16.95;98437.97;5095988;28;20025;-89
2021/06/01 07:42:56;;;;;;;0.88;0.75;;;;;;;31.49;17.14;98452.31;5095853;28;20068;-89
2021/06/01 07:45:24;;;;;;;1.90;0.70;;;;;;;31.42;17.66;98447.75;5095843;28;20028;-89
2021/06/01 07:47:50;;;;;;;0.90;0.60;;;;;;;30.68;16.22;98442.53;5095960;28;20454;-90
2021/06/01 07:50:16;;;;;;;1.25;0.60;;;;;;;30.44;17.12;98446.41;5095932;28;20024;-89
2021/06/01 07:52:42;;;;;;;0.70;0.70;;;;;;;29.90;18.16;98444.94;5095587;28;20032;-88
2021/06/01 07:55:09;;;;;;;2.60;0.80;;;;;;;28.34;18.31;98451.84;5095371;28;20050;-90
2021/06/01 07:57:35;;;;;;;0.98;0.80;;;;;;;28.04;19.71;98452.44;5095701;28;20463;-89
2021/06/01 08:00:01;;;;;;;0.70;0.70;;;;;;;28.85;18.39;98446.06;5095273;28;20089;-89
2021/06/01 08:02:27;;;;;;;1.40;0.68;;;;;;;30.30;17.08;98450.59;5095407;28;20575;-89
2021/06/01 08:04:53;;;;;;;0.82;0.77;;;;;;;30.74;18.16;98443.47;5095242;28;20567;-88
2021/06/01 08:07:20;;;;;;;2.80;0.57;;;;;;;29.31;18.83;98451.66;5092594;28;20040;-89
2021/06/01 08:09:47;;;;;;;1.88;0.73;;;;;;;28.47;18.93;98451.81;5094027;28;20480;-89
2021/06/01 08:12:13;;;;;;;1.77;0.63;;;;;;;30.58;16.46;98443.78;5095112;28;20039;-89
2021/06/01 08:14:39;;;;;;;0.75;0.75;;;;;;;31.17;16.30;98452.97;5094978;28;20032;-89
2021/06/01 08:17:05;;;;;;;0.98;0.60;;;;;;;30.80;16.04;98440.81;5095045;28;20040;-89
2021/06/01 08:19:35;;;;;;;1.15;0.50;;;;;;;31.91;15.64;98446.69;5094999;28;20040;-89
2021/06/01 08:22:09;;;;;;;1.17;0.50;;;;;;;31.49;17.47;98443.00;5095023;28;20506;-89
2021/06/01 08:24:36;;;;;;;0.65;0.30;;;;;;;30.54;16.33;98445.97;5095307;28;20391;-90
2021/06/01 08:27:03;;;;;;;0.73;0.73;;;;;;;28.90;17.34;98449.13;5094969;28;20032;-90
2021/06/01 08:29:29;;;;;;;0.50;0.50;;;;;;;27.98;19.30;98454.22;5094506;28;20028;-90
2021/06/01 08:31:55;;;;;;;1.00;0.60;;;;;;;28.77;16.59;98448.38;5094868;28;20046;-89
2021/06/01 08:34:21;;;;;;;0.50;0.50;;;;;;;28.29;17.64;98451.59;5094229;28;20029;-90
2021/06/01 08:36:49;;;;;;;0.60;0.60;;;;;;;28.80;17.23;98441.78;5094579;28;20032;-88
2021/06/01 08:39:15;;;;;;;1.80;0.80;;;;;;;29.91;16.39;98438.03;5094690;28;20028;-89
2021/06/01 08:41:43;;;;;;;0.90;0.85;;;;;;;31.16;15.49;98442.88;5094755;28;20028;-89
2021/06/01 08:44:12;;;;;;;1.58;0.90;;;;;;;31.96;14.89;98443.19;5094477;28;20024;-88
2021/06/01 08:46:39;;;;;;;4.57;0.70;;;;;;;28.83;17.02;98437.25;5094294;28;20028;-89
2021/06/01 08:49:05;;;;;;;0.90;0.70;;;;;;;26.95;18.43;98447.22;5094853;28;20122;-90
2021/06/01 08:51:31;;;;;;;1.33;1.10;;;;;;;27.13;18.57;98439.84;5094841;28;20054;-89
2021/06/01 08:53:58;;;;;;;0.60;0.60;;;;;;;28.60;15.41;98436.44;5094409;28;20038;-89
2021/06/01 08:56:26;;;;;;;1.13;0.52;;;;;;;30.08;16.46;98436.50;5094620;28;20053;-89
2021/06/01 08:58:52;;;;;;;1.88;1.45;;;;;;;31.55;14.24;98430.56;5094090;28;20388;-89
2021/06/01 09:01:20;;;;;;;0.47;0.47;;;;;;;32.36;12.71;98428.66;5094325;28;20039;-89
2021/06/01 09:03:51;;;;;;;0.50;0.30;;;;;;;30.49;16.25;98431.63;5093914;28;20028;-89
2021/06/01 09:09:03;;;;;;;0.80;0.50;;;;;;;31.06;13.29;98433.59;5073940;28;20036;-88
2021/06/01 09:14:16;;;;;;;0.30;0.22;;;;;;;32.38;13.89;98426.13;5073827;28;20433;-89
2021/06/01 09:20:55;;;;;;;4.70;0.50;;;;;;;30.34;14.33;98420.09;5073695;28;20136;-90
2021/06/01 09:22:37;;;;;;;0.38;0.38;;;;;;;31.20;14.20;98417.97;5073636;28;20050;-88
2021/06/01 09:25:13;;;;;;;0.57;0.40;;;;;;;30.62;16.84;98426.63;5073645;28;20063;-89
2021/06/01 09:27:43;;;;;;;0.57;0.50;;;;;;;29.68;15.55;98426.41;5073658;28;20029;-89
2021/06/01 09:30:11;;;;;;;0.60;0.50;;;;;;;30.00;15.31;98417.47;5073591;28;20037;-89
2021/06/01 09:32:44;;;;;;;4.63;0.70;;;;;;;29.96;17.08;98425.31;5073910;28;20032;-89
2021/06/01 09:35:11;;;;;;;1.83;0.57;;;;;;;32.03;14.41;98423.78;5078410;28;20032;-89
2021/06/01 09:37:37;;;;;;;1.58;0.80;;;;;;;30.77;15.83;98419.84;5093395;28;20503;-89
2021/06/01 09:40:19;;;;;;;1.02;0.60;;;;;;;28.97;15.54;98414.94;5093666;28;20016;-89
2021/06/01 09:42:52;;;;;;;0.80;0.40;;;;;;;29.85;15.35;98416.47;5093388;28;20085;-89
2021/06/01 09:45:22;;;;;;;0.50;0.50;;;;;;;32.24;15.09;98415.47;5093837;28;20028;-89
2021/06/01 09:47:55;;;;;;;;;;;;;;;33.25;12.78;98402.91;5094152;28;20114;-89
2021/06/01 09:53:28;;;;;;;0.30;0.30;;;;;;;30.37;15.41;98416.34;5094132;28;20032;-90
2021/06/01 09:55:55;;;;;;;0.60;0.60;;;;;;;29.87;15.50;98408.31;5092971;28;20055;-89
2021/06/01 09:58:28;;;;;;;0.70;0.50;;;;;;;31.50;15.25;98408.50;5093656;28;20074;-90
2021/06/01 10:00:56;;;;;;;0.40;0.40;;;;;;;31.06;14.52;98412.97;5093460;28;20028;-89
2021/06/01 10:03:25;;;;;;;3.78;0.65;;;;;;;31.42;14.27;98410.88;5093340;28;20534;-90
2021/06/01 10:05:57;;;;;;;1.05;0.50;;;;;;;32.96;13.34;98408.50;5090464;28;20051;-89
2021/06/01 10:08:25;;;;;;;0.88;0.50;;;;;;;33.89;13.11;98395.22;5093527;28;20353;-90
2021/06/01 10:10:58;;;;;;;1.15;0.45;;;;;;;34.45;11.90;98396.84;5093099;28;20028;-89
2021/06/01 10:13:27;;;;;;;2.30;0.40;;;;;;;34.29;11.00;98405.16;5093126;28;20024;-89
2021/06/01 10:16:16;;;;;;;0.35;0.32;;;;;;;34.90;11.92;98397.44;5093256;28;20535;-89
2021/06/01 10:18:43;;;;;;;0.30;0.30;;;;;;;34.80;11.30;98401.75;5093150;28;20055;-90
2021/06/01 10:21:12;;;;;;;0.30;0.30;;;;;;;33.27;11.60;98403.19;5093608;28;20475;-89
2021/06/01 10:23:41;;;;;;;0.30;0.30;;;;;;;33.89;11.39;98394.44;5095594;28;20028;-89
2021/06/01 10:26:11;;;;;;;0.65;0.20;;;;;;;34.95;11.28;98391.00;5092948;28;20054;-89
2021/06/01 10:28:41;;;;;;;0.45;0.30;;;;;;;35.78;10.44;98391.91;5093322;28;20036;-89
2021/06/01 10:31:10;;;;;;;1.75;0.30;;;;;;;34.38;12.00;98391.56;5093566;28;20030;-90
2021/06/01 10:33:40;;;;;;;0.73;0.20;;;;;;;33.98;12.86;98385.78;5091748;28;20372;-89
2021/06/01 10:36:18;;;;;;;0.30;0.30;;;;;;;34.77;12.78;98382.75;5092955;28;20032;-89
2021/06/01 10:53:11;;;;;;;;;;;;;;;33.43;11.11;98383.56;5093731;28;20028;-89
2021/06/01 10:55:54;;;;;;;3.63;0.43;;;;;;;33.67;11.51;98383.47;5092674;28;19912;-88
2021/06/01 11:04:13;;;;;;;0.63;0.30;;;;;;;32.44;12.88;98392.94;5087951;28;20119;-88
2021/06/01 11:06:58;;;;;;;;;;;;;;;32.76;11.27;98386.41;5093039;28;20020;-89
2021/06/01 11:09:33;;;;;;;2.20;0.30;;;;;;;33.73;12.00;98390.03;5096320;28;19912;-89
2021/06/01 11:12:23;;;;;;;0.40;0.40;;;;;;;34.20;11.34;98382.50;5096727;28;20020;-89
2021/06/01 11:14:51;;;;;;;0.40;0.40;;;;;;;34.83;13.06;98380.75;5097262;28;20048;-89
2021/06/01 11:17:37;;;;;;;0.50;0.40;;;;;;;34.53;11.35;98380.91;5096384;28;20063;-89
2021/06/01 11:20:18;;;;;;;0.30;0.30;;;;;;;32.71;13.11;98373.63;5095957;28;20055;-90
2021/06/01 11:33:42;;;;;;;1.75;0.30;;;;;;;31.82;13.34;98376.50;5096890;28;20043;-88
2021/06/01 11:36:17;;;;;;;0.50;0.50;;;;;;;32.47;13.03;98377.72;5096913;28;20039;-89
2021/06/01 11:44:17;;;;;;;0.40;0.40;;;;;;;34.13;12.10;98363.75;5096129;28;20131;-89
2021/06/01 11:46:50;;;;;;;0.40;0.40;;;;;;;35.05;12.16;98366.78;5095993;28;20115;-90
2021/06/01 11:52:02;;;;;;;3.03;0.20;;;;;;;34.11;12.05;98363.47;5095650;28;20522;-89
2021/06/01 11:54:28;;;;;;;0.47;0.30;;;;;;;33.57;13.24;98366.97;5095426;28;20036;-90
2021/06/01 11:57:21;;;;;;;0.40;0.40;;;;;;;33.11;12.18;98367.47;5095562;28;20399;-89
2021/06/01 12:18:43;;;;;;;0.65;0.40;;;;;;;30.56;13.75;98352.75;5095270;28;20098;-90
2021/06/01 12:21:13;;;;;;;1.63;1.05;;;;;;;31.17;15.97;98351.63;5094834;28;20490;-90
2021/06/01 12:23:43;;;;;;;0.40;0.40;;;;;;;30.39;14.23;98357.16;5095089;28;20032;-89
2021/06/01 12:32:09;;;;;;;0.55;0.38;;;;;;;30.86;14.53;98358.72;5095493;28;20551;-89
2021/06/01 13:09:13;;;;;;;0.38;0.38;;;;;;;31.62;14.83;98347.09;5094358;28;20032;-88
2021/06/01 13:20:21;;;;;;;0.40;0.30;;;;;;;34.28;12.93;98338.84;5093113;28;20098;-89
2021/06/01 13:47:13;;;;;;;1.27;0.35;;;;;;;33.32;13.98;98328.50;5093605;28;20526;-89
2021/06/01 13:57:51;;;;;;;1.50;0.47;;;;;;;35.50;11.18;98339.44;5073511;28;20043;-89
2021/06/01 15:07:56;;;;;;;0.25;0.20;;;;;;;36.90;11.73;98314.75;5096677;28;20039;-89
2021/06/01 15:53:48;;;;;;;0.20;0.20;;;;;;;34.85;12.50;98301.13;5095306;28;20066;-87
2021/06/01 16:13:46;;;;;;;0.50;0.30;;;;;;;38.01;9.67;98289.03;5095767;28;20043;-86
2021/06/01 16:22:17;;;;;;;0.35;0.30;;;;;;;35.86;11.01;98293.75;5095388;28;20035;-87
2021/06/01 17:03:40;;;;;;;0.98;0.38;;;;;;;36.60;10.92;98302.97;5094502;28;20035;-85
2021/06/01 17:06:14;;;;;;;3.00;0.43;;;;;;;36.91;11.61;98307.78;5094475;28;20466;-85
2021/06/01 17:11:16;;;;;;;0.43;0.40;;;;;;;36.58;11.33;98310.50;5094325;28;20085;-85
2021/06/01 17:13:49;;;;;;;5.00;1.70;;;;;;;36.42;10.83;98319.78;5094508;28;20032;-85
2021/06/01 17:16:27;;;;;;;0.30;0.30;;;;;;;36.50;11.03;98315.94;5093836;28;20063;-85
2021/06/01 17:30:24;;;;;;;1.55;0.40;;;;;;;37.00;11.10;98321.84;5093428;28;20057;-86
2021/06/01 17:35:32;;;;;;;0.88;0.50;;;;;;;36.35;11.54;98328.84;5093303;28;20052;-86
2021/06/01 17:38:01;;;;;;;1.92;0.63;;;;;;;36.57;11.33;98318.31;5077767;28;20025;-86